Latest Weather Observations for Kununurra Airport

IDW60801

Issued at 6:04 pm WST Sunday 24 January 2021 (issued every 10 minutes, with the page automatically refreshed every 10 minutes)

About weather observations | Map of weather stations | Latest weather observations for WA | Other Formats
Station Details ID: 002056 Name: KUNUNURRA AERO Lat: -15.78 Lon: 128.71 Height: 44.0 m
Data from the previous 72 hours. | See also: Recent months at Kununurra Airport
Date/Time
WST
Temp
°C
App
Temp
°C
Dew
Point
°C
Rel
Hum
%
Delta-T
°C
Wind Press
QNH
hPa
Press
MSL
hPa
Rain since
9am
mm
Dir  Spd
km/h
Gust
km/h
Spd
kts
Gust
kts
24/06:00pm 25.0 29.0 25.0 100 0.0 NNW 13 19 7 10 1005.4 1005.1 9.4
24/05:58pm 25.0 28.6 25.0 100 0.0 NNW 15 19 8 10 1005.4 1005.1 9.2
24/05:30pm 25.1 29.5 25.1 100 0.0 NNW 11 15 6 8 1005.3 1005.0 5.2
24/05:21pm 25.2 29.7 25.2 100 0.0 NW 11 13 6 7 1005.4 1005.1 3.4
24/05:05pm 25.1 28.8 25.1 100 0.0 NNW 15 20 8 11 1005.1 1004.8 2.2
24/05:00pm 25.2 28.6 25.2 100 0.0 NNW 17 24 9 13 1004.9 1004.6 2.0
24/04:55pm 25.1 28.4 25.1 100 0.0 N 17 24 9 13 1004.6 1004.2 2.0
24/04:40pm 25.1 27.8 25.1 100 0.0 N 20 26 11 14 1004.1 1003.7 1.8
24/04:30pm 25.4 28.3 25.4 100 0.0 N 20 28 11 15 1004.2 1003.8 1.6
24/04:00pm 26.6 32.0 26.6 100 0.0 NNE 11 13 6 7 1003.6 1003.2 1.2
24/03:59pm 26.7 32.2 26.7 100 0.0 NNE 11 13 6 7 1003.6 1003.2 1.2
24/03:57pm 26.7 32.6 26.7 100 0.0 NNE 9 13 5 7 1003.5 1003.1 1.2
24/03:47pm 26.8 33.0 26.6 99 0.1 N 7 9 4 5 1003.3 1002.9 1.2
24/03:30pm 26.4 32.0 25.7 96 0.5 W 7 15 4 8 1002.9 1002.5 1.2
24/03:00pm 27.2 31.5 26.1 94 0.8 NNW 15 20 8 11 1002.1 1001.7 1.2
24/02:30pm 29.5 33.7 25.9 81 2.6 NNE 15 20 8 11 1002.8 1002.4 0.6
24/02:00pm 30.2 34.3 25.7 77 3.2 N 15 20 8 11 1002.6 1002.2 0.6
24/01:30pm 32.1 36.1 26.2 71 4.2 WSW 17 20 9 11 1003.3 1002.9 0.6
24/01:00pm 32.8 37.5 25.6 66 5.1 WNW 11 17 6 9 1003.3 1002.9 0.6
24/12:30pm 30.8 37.2 26.9 80 2.8 ESE 7 9 4 5 1003.9 1003.5 0.4
24/12:16pm 29.7 35.9 27.7 89 1.5 SSE 11 15 6 8 1004.3 1003.9 0.4
24/12:00pm 30.2 36.3 27.0 83 2.3 ESE 9 13 5 7 1004.8 1004.5 0.2
24/11:57am 30.5 36.5 27.5 84 2.2 E 11 15 6 8 1004.8 1004.5 0.0
24/11:30am 30.7 36.8 27.1 81 2.6 WNW 9 17 5 9 1005.4 1005.1 0.0
24/11:00am 32.2 37.5 26.5 72 4.1 WNW 11 19 6 10 1006.0 1005.7 0.0
24/10:30am 31.4 37.1 27.1 78 3.1 NW 11 19 6 10 1006.6 1006.3 0.0
24/10:00am 31.1 36.5 26.6 77 3.2 NW 11 17 6 9 1007.2 1006.9 0.0
24/09:30am 30.4 35.4 26.6 80 2.7 NW 13 19 7 10 1007.5 1007.2 0.0
24/09:00am 29.9 35.4 26.7 83 2.3 NW 11 20 6 11 1007.6 1007.3 57.6
24/08:30am 28.4 33.9 25.6 85 2.0 NW 7 11 4 6 1007.8 1007.5 57.6
24/08:00am 28.0 34.5 25.6 87 1.7 WNW 2 7 1 4 1007.7 1007.4 57.6
24/07:30am 27.2 32.7 25.6 91 1.1 N 7 11 4 6 1007.8 1007.5 57.6
24/07:00am 26.4 31.9 26.1 98 0.2 NNE 9 9 5 5 1007.5 1007.2 57.4
24/06:30am 25.5 30.9 25.5 100 0.0 NNE 7 9 4 5 1007.3 1007.0 57.4
24/06:00am 24.9 30.0 24.9 100 0.0 N 7 9 4 5 1007.2 1006.9 57.4
24/05:30am 24.5 30.3 24.5 100 0.0 N 2 6 1 3 1006.9 1006.6 57.4
24/05:00am 24.6 29.5 24.6 100 0.0 NNE 7 9 4 5 1006.7 1006.4 57.4
24/04:30am 24.7 29.8 24.7 100 0.0 NE 6 9 3 5 1006.3 1006.0 57.4
24/04:00am 25.0 31.5 25.0 100 0.0 CALM 0 0 0 0 1006.1 1005.8 57.4
24/03:30am 24.6 29.7 24.6 100 0.0 N 6 9 3 5 1005.9 1005.6 57.4
24/03:00am 24.6 29.1 24.6 100 0.0 N 9 11 5 6 1005.7 1005.4 57.4
24/02:30am 24.7 29.8 24.7 100 0.0 NNW 6 7 3 4 1005.8 1005.5 57.4
24/02:00am 24.7 29.3 24.7 100 0.0 N 9 11 5 6 1005.9 1005.6 57.4
24/01:30am 24.7 28.5 24.7 100 0.0 N 13 15 7 8 1006.0 1005.7 57.4
24/01:00am 24.8 28.7 24.8 100 0.0 N 13 17 7 9 1006.3 1006.0 57.4
24/12:30am 24.8 29.0 24.8 100 0.0 N 11 15 6 8 1006.6 1006.3 57.4
24/12:00am 24.7 29.3 24.7 100 0.0 NNE 9 11 5 6 1007.1 1006.8 57.4
 
Date/Time
WST
Temp
°C
App
Temp
°C
Dew
Point
°C
Rel
Hum
%
Delta-T
°C
Wind Press
QNH
hPa
Press
MSL
hPa
Rain since
9am
mm
Dir  Spd
km/h
Gust
km/h
Spd
kts
Gust
kts
23/11:30pm 24.8 29.8 24.8 100 0.0 ENE 7 9 4 5 1007.5 1007.2 57.4
23/11:00pm 24.8 29.4 24.8 100 0.0 N 9 11 5 6 1007.9 1007.6 57.4
23/10:30pm 24.9 29.6 24.9 100 0.0 N 9 11 5 6 1008.0 1007.7 57.4
23/10:00pm 25.0 29.7 25.0 100 0.0 N 9 11 5 6 1008.7 1008.4 57.4
23/09:30pm 25.1 29.5 25.1 100 0.0 N 11 13 6 7 1008.6 1008.3 57.4
23/09:00pm 25.2 29.7 25.2 100 0.0 N 11 13 6 7 1008.5 1008.2 57.4
23/08:30pm 25.2 30.5 25.2 100 0.0 NNE 7 9 4 5 1008.3 1008.0 57.4
23/08:00pm 25.3 29.9 25.3 100 0.0 N 11 13 6 7 1007.9 1007.6 57.4
23/07:30pm 25.2 30.6 25.2 100 0.0 NE 6 9 3 5 1007.4 1007.1 57.4
23/07:00pm 25.2 30.5 25.2 100 0.0 NNE 7 7 4 4 1007.6 1007.3 57.4
23/06:30pm 25.0 30.3 25.0 100 0.0 NNE 6 7 3 4 1007.2 1006.9 57.4
23/06:00pm 25.1 29.9 25.1 100 0.0 NNW 9 11 5 6 1006.7 1006.4 57.2
23/05:30pm 25.2 28.6 25.2 100 0.0 NNW 17 20 9 11 1006.5 1006.2 56.6
23/05:00pm 25.2 30.1 25.2 100 0.0 W 9 11 5 6 1005.8 1005.5 55.6
23/04:30pm 24.8 29.4 24.8 100 0.0 WNW 9 13 5 7 1006.2 1005.9 54.8
23/04:26pm 24.9 29.6 24.9 100 0.0 W 9 15 5 8 1006.1 1005.8 54.6
23/04:11pm 24.8 27.5 24.8 100 0.0 NW 19 26 10 14 1005.6 1005.3 54.0
23/04:00pm 24.6 24.5 24.6 100 0.0 NW 33 50 18 27 1005.4 1005.1 50.6
23/03:41pm 26.3 27.8 26.1 99 0.1 NNW 30 46 16 25 1005.3 1005.0 42.8
23/03:36pm 27.0 29.4 26.3 96 0.5 NNW 26 39 14 21 1005.1 1004.8 41.8
23/03:30pm 27.9 30.9 26.1 90 1.3 NNW 22 37 12 20 1004.8 1004.5 41.8
23/03:00pm 28.2 35.7 28.2 100 0.0 SW 6 7 3 4 1003.8 1003.4 41.8
23/02:32pm 27.1 33.6 27.1 100 0.0 ESE 7 15 4 8 1004.0 1003.6 41.6
23/02:30pm 26.9 32.9 26.9 100 0.0 ESE 9 15 5 8 1004.1 1003.7 41.6
23/02:09pm 25.2 29.5 24.9 98 0.2 ESE 11 26 6 14 1004.8 1004.5 39.4
23/02:00pm 26.6 28.2 23.9 85 1.9 NW 22 43 12 23 1005.3 1005.0 31.6
23/01:54pm 25.9 28.2 25.0 95 0.6 NW 22 43 12 23 1006.0 1005.7 22.0
23/01:51pm 25.8 27.7 24.4 92 1.0 NW 22 43 12 23 1005.6 1005.3 15.8
23/01:42pm 26.2 24.7 23.5 85 1.8 N 37 54 20 29 1004.8 1004.5 3.8
23/01:40pm 26.8 26.7 24.5 87 1.6 N 33 54 18 29 1004.6 1004.2 1.4
23/01:39pm 27.3 27.6 24.9 87 1.7 N 32 54 17 29 1004.5 1004.1 0.6
23/01:30pm 31.7 35.4 26.3 73 3.9 NNE 19 24 10 13 1004.4 1004.0 0.0
23/01:00pm 33.4 36.8 25.9 65 5.4 N 19 24 10 13 1004.4 1004.0 0.0
23/12:30pm 33.3 36.5 25.6 64 5.5 N 19 24 10 13 1005.0 1004.7 0.0
23/12:26pm 33.3 36.1 25.0 61 5.9 N 19 24 10 13 1005.1 1004.8 0.0
23/12:07pm 34.3 38.2 26.0 62 6.0 NW 17 20 9 11 1005.3 1005.0 0.0
23/12:00pm 33.9 38.5 25.9 63 5.7 NNW 13 19 7 10 1005.4 1005.1 0.0
23/11:30am 32.9 37.8 26.4 68 4.7 NW 13 20 7 11 1006.1 1005.8 0.0
23/11:00am 32.5 35.7 25.6 67 4.9 NNW 19 28 10 15 1006.5 1006.2 0.0
23/10:30am 32.8 36.2 25.9 67 4.9 NW 19 28 10 15 1006.6 1006.3 0.0
23/10:00am 32.2 36.7 25.8 69 4.6 NNW 13 20 7 11 1006.9 1006.6 0.0
23/09:30am 30.8 36.7 26.7 79 2.9 NW 9 13 5 7 1007.5 1007.2 0.0
23/09:00am 29.9 36.2 27.3 86 1.9 NNW 9 11 5 6 1007.8 1007.5 6.0
23/08:30am 29.4 36.5 27.6 90 1.3 N 6 9 3 5 1008.2 1007.9 6.0
23/08:00am 28.5 35.1 26.9 91 1.1 NNW 6 7 3 4 1008.2 1007.9 6.0
23/07:30am 27.8 35.0 27.3 97 0.4 NNW 4 6 2 3 1008.3 1008.0 6.0
23/07:00am 27.4 34.9 27.1 98 0.2 NW 2 6 1 3 1008.3 1008.0 6.0
23/06:30am 26.8 34.4 26.8 100 0.0 CALM 0 0 0 0 1008.1 1007.8 6.0
23/06:00am 26.1 33.3 26.1 100 0.0 CALM 0 0 0 0 1007.4 1007.1 6.0
23/05:30am 25.7 32.6 25.7 100 0.0 CALM 0 0 0 0 1007.0 1006.7 6.0
23/05:00am 25.7 32.6 25.7 100 0.0 CALM 0 0 0 0 1006.7 1006.4 6.0
23/04:30am 25.9 32.2 25.9 100 0.0 NW 4 7 2 4 1006.2 1005.9 6.0
23/04:00am 25.8 32.0 25.8 100 0.0 NW 4 7 2 4 1006.2 1005.9 6.0
23/03:30am 25.9 32.9 25.9 100 0.0 CALM 0 0 0 0 1006.0 1005.7 6.0
23/03:00am 26.1 32.1 26.1 100 0.0 NNE 6 7 3 4 1006.0 1005.7 6.0
23/02:30am 26.1 32.1 26.1 100 0.0 NNE 6 7 3 4 1006.0 1005.7 6.0
23/02:00am 26.1 32.1 26.1 100 0.0 NE 6 7 3 4 1005.9 1005.6 6.0
23/01:30am 26.0 33.1 26.0 100 0.0 CALM 0 0 0 0 1006.1 1005.8 6.0
23/01:00am 26.1 32.1 26.1 100 0.0 N 6 6 3 3 1006.1 1005.8 6.0
23/12:30am 26.3 31.9 26.3 100 0.0 NNE 9 11 5 6 1006.0 1005.7 6.0
23/12:00am 26.5 32.8 26.5 100 0.0 N 6 7 3 4 1006.6 1006.3 6.0
 
Date/Time
WST
Temp
°C
App
Temp
°C
Dew
Point
°C
Rel
Hum
%
Delta-T
°C
Wind Press
QNH
hPa
Press
MSL
hPa
Rain since
9am
mm
Dir  Spd
km/h
Gust
km/h
Spd
kts
Gust
kts
22/11:30pm 26.6 33.0 26.6 100 0.0 NNW 6 7 3 4 1006.9 1006.6 6.0
22/11:00pm 26.7 32.6 26.7 100 0.0 N 9 11 5 6 1007.6 1007.3 6.0
22/10:30pm 26.7 32.2 26.7 100 0.0 N 11 13 6 7 1008.0 1007.7 6.0
22/10:00pm 26.9 33.5 26.9 100 0.0 N 6 7 3 4 1008.6 1008.3 6.0
22/09:30pm 27.2 33.8 27.0 99 0.1 NW 6 7 3 4 1008.5 1008.2 6.0
22/09:00pm 26.9 33.3 26.7 99 0.1 NNW 6 7 3 4 1008.3 1008.0 6.0
22/08:30pm 27.1 33.4 26.8 98 0.2 NNE 7 9 4 5 1008.2 1007.9 6.0
22/08:00pm 27.2 33.1 26.7 97 0.4 N 9 9 5 5 1008.0 1007.7 6.0
22/07:30pm 27.1 33.5 26.6 97 0.4 WNW 6 7 3 4 1007.7 1007.4 6.0
22/07:00pm 27.6 34.0 26.7 95 0.6 NE 6 7 3 4 1007.2 1006.9 6.0
22/06:30pm 27.8 34.2 26.7 94 0.8 NNE 6 7 3 4 1006.9 1006.6 6.0
22/06:00pm 28.4 34.3 26.8 91 1.1 NE 9 13 5 7 1006.7 1006.4 6.0
22/05:30pm 28.9 33.7 26.3 86 1.9 NNE 13 17 7 9 1006.2 1005.9 6.0
22/05:00pm 29.9 34.6 25.6 78 3.1 N 11 15 6 8 1005.8 1005.5 6.0
22/04:30pm 29.6 34.6 26.0 81 2.6 N 11 15 6 8 1005.6 1005.3 6.0
22/04:00pm 29.7 35.7 26.3 82 2.4 N 7 11 4 6 1005.1 1004.8 6.0
22/03:30pm 28.8 33.3 25.2 81 2.5 NE 11 15 6 8 1004.5 1004.1 6.0
22/03:00pm 28.7 33.9 25.7 84 2.1 N 9 11 5 6 1004.4 1004.0 6.0
22/02:30pm 28.6 33.7 26.2 87 1.7 N 11 13 6 7 1004.6 1004.2 6.0
22/02:00pm 27.7 33.2 26.1 91 1.1 NNW 9 13 5 7 1005.3 1005.0 6.0
22/01:35pm 27.2 33.0 25.8 92 1.0 W 6 9 3 5 1005.8 1005.5 6.0
22/01:30pm 27.3 33.8 26.2 94 0.8 WSW 4 9 2 5 1005.9 1005.6 6.0
22/01:00pm 26.7 32.5 25.7 94 0.7 WSW 6 9 3 5 1006.4 1006.1 6.0
22/12:56pm 26.6 32.7 25.7 95 0.6 WSW 4 7 2 4 1006.6 1006.3 6.0
22/12:43pm 26.1 31.3 25.1 94 0.7 SW 7 9 4 5 1006.9 1006.6 6.0
22/12:41pm 26.2 31.8 25.5 96 0.5 SW 6 9 3 5 1006.9 1006.6 6.0
22/12:30pm 25.8 31.9 25.1 96 0.5 SE 2 7 1 4 1007.2 1006.9 6.0
22/12:05pm 25.2 30.3 25.0 99 0.1 S 7 11 4 6 1007.9 1007.6 6.0
22/12:00pm 25.2 30.5 25.2 100 0.0 SSE 7 11 4 6 1008.0 1007.7 6.0
22/11:30am 24.9 29.2 24.9 100 0.0 S 11 15 6 8 1008.7 1008.4 6.0
22/11:00am 24.6 30.8 24.6 100 0.0 CALM 0 0 0 0 1009.2 1008.9 6.0
22/10:43am 24.5 29.5 24.5 100 0.0 NNE 6 7 3 4 1009.8 1009.5 5.8
22/10:30am 24.5 29.3 24.5 100 0.0 NNE 7 11 4 6 1010.2 1009.9 5.4
22/10:05am 24.6 30.4 24.6 100 0.0 ENE 2 6 1 3 1011.0 1010.7 4.0
22/10:03am 24.5 30.3 24.5 100 0.0 E 2 6 1 3 1011.0 1010.7 3.6
22/10:00am 24.4 30.1 24.4 100 0.0 E 2 7 1 4 1011.0 1010.7 3.4
22/09:30am 24.6 29.5 24.6 100 0.0 NE 7 11 4 6 1010.9 1010.6 1.4
22/09:16am 24.4 28.8 24.4 100 0.0 E 9 13 5 7 1011.1 1010.8 1.0
22/09:00am 24.5 27.4 24.5 100 0.0 ESE 17 22 9 12 1010.8 1010.5 16.0
22/08:54am 24.6 27.2 24.6 100 0.0 ESE 19 30 10 16 1010.7 1010.4 14.4
22/08:30am 24.4 26.3 24.4 100 0.0 ESE 22 30 12 16 1010.8 1010.5 12.0
22/08:00am 24.6 26.6 24.6 100 0.0 ESE 22 35 12 19 1010.6 1010.3 3.4
22/07:30am 25.7 26.8 24.3 92 1.0 ESE 26 41 14 22 1009.9 1009.6 2.2
22/07:25am 26.7 30.5 25.3 92 1.0 SE 15 37 8 20 1009.6 1009.3 2.2
22/07:00am 27.6 34.7 27.6 100 0.0 E 6 9 3 5 1009.4 1009.1 2.2
22/06:30am 27.3 35.3 27.3 100 0.0 CALM 0 7 0 4 1008.4 1008.1 2.2
22/06:07am 27.1 34.9 27.1 100 0.0 CALM 0 0 0 0 1008.3 1008.0 2.2
22/06:00am 27.0 34.8 27.0 100 0.0 CALM 0 0 0 0 1008.4 1008.1 2.2
22/05:30am 26.7 32.9 26.7 100 0.0 N 7 9 4 5 1007.8 1007.5 2.2
22/05:20am 26.7 33.1 26.7 100 0.0 NNE 6 7 3 4 1007.7 1007.4 2.2
22/05:12am 26.7 33.1 26.7 100 0.0 NE 6 9 3 5 1007.7 1007.4 2.2
22/05:00am 26.8 33.3 26.8 100 0.0 NNE 6 9 3 5 1007.7 1007.4 2.2
22/04:30am 27.1 34.6 27.1 100 0.0 S 2 7 1 4 1007.6 1007.3 2.2
22/04:00am 27.0 33.6 27.0 100 0.0 SSW 6 9 3 5 1007.3 1007.0 1.6
22/03:30am 26.8 34.4 26.8 100 0.0 CALM 0 0 0 0 1006.9 1006.6 1.6
22/03:18am 27.4 35.4 27.4 100 0.0 CALM 0 0 0 0 1006.9 1006.6 1.6
22/03:00am 27.2 35.1 27.2 100 0.0 CALM 0 0 0 0 1006.8 1006.5 1.6
22/02:30am 27.0 34.8 27.0 100 0.0 CALM 0 0 0 0 1006.6 1006.3 1.6
22/02:00am 26.8 33.3 26.8 100 0.0 ENE 6 7 3 4 1006.4 1006.1 1.6
22/01:30am 26.8 34.4 26.8 100 0.0 CALM 0 6 0 3 1006.6 1006.3 1.6
22/01:00am 26.8 33.7 26.8 100 0.0 WNW 4 7 2 4 1006.6 1006.3 1.6
22/12:30am 27.0 34.8 27.0 100 0.0 CALM 0 0 0 0 1007.1 1006.8 1.6
22/12:00am 27.5 35.0 27.2 98 0.2 NE 2 6 1 3 1007.8 1007.5 1.6
 
Date/Time
WST
Temp
°C
App
Temp
°C
Dew
Point
°C
Rel
Hum
%
Delta-T
°C
Wind Press
QNH
hPa
Press
MSL
hPa
Rain since
9am
mm
Dir  Spd
km/h
Gust
km/h
Spd
kts
Gust
kts
21/11:30pm 27.2 33.8 26.9 98 0.2 NE 6 7 3 4 1008.0 1007.7 1.6
21/11:00pm 27.6 34.1 27.1 97 0.4 N 7 9 4 5 1008.1 1007.8 1.6
21/10:30pm 27.6 34.2 27.3 98 0.2 N 7 9 4 5 1008.5 1008.2 1.6
21/10:00pm 27.6 33.9 27.3 98 0.2 NNE 9 11 5 6 1008.7 1008.4 1.6
21/09:30pm 27.8 33.9 27.1 96 0.5 NNE 9 11 5 6 1008.7 1008.4 1.6
21/09:00pm 27.9 34.0 27.0 95 0.6 NE 9 9 5 5 1008.5 1008.2 1.6
21/08:30pm 28.4 34.1 27.0 92 1.0 NNW 11 13 6 7 1008.4 1008.1 1.6
21/08:00pm 28.7 35.1 26.9 90 1.3 NNW 7 9 4 5 1008.5 1008.2 1.6
21/07:30pm 28.6 34.5 26.8 90 1.3 NW 9 9 5 5 1008.1 1007.8 1.6
21/07:00pm 28.9 34.6 26.5 87 1.7 NW 9 11 5 6 1007.5 1007.2 1.6
21/06:30pm 29.6 35.0 26.6 84 2.1 NNW 11 13 6 7 1007.2 1006.9 1.6

Other formats

Comma delimited format used in spreadsheet applications
http://www.bom.gov.au/fwo/IDW60801/IDW60801.94216.axf

JavaScript Object Notation format (JSON) in row-major order
http://www.bom.gov.au/fwo/IDW60801/IDW60801.94216.json

Data quality

Most of these data are generated automatically and are frequently updated. Quality checks on data are not normally performed. It is possible for incorrect values to appear. Refer to information at About Latest Weather Observations and please check the disclaimer before using these data.